Time;durP1;ratioP1;P1;durP2;ratioP2;P2;SDS_P1;SDS_P2;PMS_P1;PMS_P2;Temp;Humidity;BMP_temperature;BMP_pressure;BME280_temperature;BME280_humidity;BME280_pressure;Samples;Min_cycle;Max_cycle;Signal;HPM_P1;HPM_P2
2023/09/01 00:02:21;;;;;;;12.73;7.15;;;;;;;12.93;97.60;101065.09;4947240;28;20504;-74
2023/09/01 00:04:59;;;;;;;13.77;7.32;;;;;;;12.90;97.93;101063.44;4963762;28;20046;-75
2023/09/01 00:07:26;;;;;;;11.80;6.57;;;;;;;12.87;97.92;101063.59;4963841;28;20070;-74
2023/09/01 00:09:53;;;;;;;13.40;6.80;;;;;;;12.85;97.91;101076.00;4963340;28;20388;-74
2023/09/01 00:12:20;;;;;;;13.10;7.40;;;;;;;12.83;97.99;101064.59;4964568;28;20159;-74
2023/09/01 00:14:47;;;;;;;14.18;7.15;;;;;;;12.79;98.16;101068.25;4965056;28;20263;-75
2023/09/01 00:17:14;;;;;;;16.83;7.68;;;;;;;12.73;98.06;101070.22;4962767;28;20265;-75
2023/09/01 00:19:41;;;;;;;11.88;7.40;;;;;;;12.67;98.15;101062.50;4964942;28;20465;-74
2023/09/01 00:22:08;;;;;;;12.52;7.20;;;;;;;12.62;98.30;101060.91;4964618;28;20039;-74
2023/09/01 00:24:37;;;;;;;15.90;7.22;;;;;;;12.58;98.50;101057.53;4963299;28;20121;-73
2023/09/01 00:27:04;;;;;;;14.82;7.50;;;;;;;12.54;98.61;101053.28;4965645;28;20066;-75
2023/09/01 00:29:33;;;;;;;16.95;7.50;;;;;;;12.47;98.75;101049.97;4945775;28;20094;-73
2023/09/01 00:32:01;;;;;;;18.75;8.02;;;;;;;12.44;98.98;101065.94;4964475;28;20039;-73
2023/09/01 00:34:32;;;;;;;15.70;7.32;;;;;;;12.42;99.04;101070.41;4953539;28;20459;-73
2023/09/01 00:36:59;;;;;;;13.77;7.50;;;;;;;12.41;99.39;101066.94;4947695;28;20047;-73
2023/09/01 00:39:26;;;;;;;12.77;7.43;;;;;;;12.40;99.48;101062.56;4946878;28;20079;-73
2023/09/01 00:41:53;;;;;;;15.30;7.50;;;;;;;12.40;99.74;101057.25;4965878;28;20439;-72
2023/09/01 00:44:21;;;;;;;17.88;7.80;;;;;;;12.40;99.73;101046.69;4963579;28;20050;-73
2023/09/01 00:46:48;;;;;;;13.70;7.50;;;;;;;12.38;99.82;101047.66;4947624;28;20543;-73
2023/09/01 00:49:18;;;;;;;14.40;7.90;;;;;;;12.37;99.92;101048.56;4962967;28;20046;-73
2023/09/01 00:51:47;;;;;;;15.77;7.68;;;;;;;12.36;100.00;101039.75;4965088;28;20049;-74
2023/09/01 00:54:15;;;;;;;14.25;8.32;;;;;;;12.35;100.00;101040.72;4964052;28;20423;-73
2023/09/01 00:56:43;;;;;;;10.88;7.65;;;;;;;12.36;100.00;101042.41;4963301;28;20491;-74
2023/09/01 00:59:10;;;;;;;14.50;7.57;;;;;;;12.35;100.00;101040.72;4961591;28;20054;-73
2023/09/01 01:01:40;;;;;;;14.13;7.78;;;;;;;12.34;100.00;101032.81;4965082;28;20047;-74
2023/09/01 01:04:08;;;;;;;14.73;7.88;;;;;;;12.34;100.00;101033.69;4950765;28;20601;-74
2023/09/01 01:06:56;;;;;;;13.25;7.68;;;;;;;12.33;100.00;101033.72;4965714;28;20512;-73
2023/09/01 01:10:20;;;;;;;13.75;7.65;;;;;;;12.30;100.00;101020.63;4961082;28;20093;-73
2023/09/01 01:13:04;;;;;;;18.30;7.63;;;;;;;12.24;100.00;101024.34;4962995;28;20582;-73
2023/09/01 01:15:35;;;;;;;13.73;7.10;;;;;;;12.21;100.00;101030.59;4966518;28;20591;-73
2023/09/01 01:18:08;;;;;;;14.63;7.78;;;;;;;12.21;100.00;101030.59;4968074;28;20693;-73
2023/09/01 01:20:40;;;;;;;14.73;7.40;;;;;;;12.21;100.00;101035.03;4966390;28;20043;-73
2023/09/01 01:23:09;;;;;;;13.05;8.68;;;;;;;12.21;100.00;101033.22;4968102;28;20042;-73
2023/09/01 01:25:48;;;;;;;18.02;10.10;;;;;;;12.23;100.00;101030.56;4965018;28;20043;-73
2023/09/01 01:28:16;;;;;;;15.75;9.45;;;;;;;12.22;100.00;101029.66;4967227;28;20059;-73
2023/09/01 01:30:46;;;;;;;18.13;10.82;;;;;;;12.25;100.00;101034.00;4959513;28;20407;-73
2023/09/01 01:33:52;;;;;;;16.73;10.90;;;;;;;12.25;100.00;101041.94;4966589;28;20078;-73
2023/09/01 01:36:41;;;;;;;15.93;10.98;;;;;;;12.23;100.00;101046.41;4949502;28;20039;-73
2023/09/01 01:39:18;;;;;;;14.95;10.15;;;;;;;12.23;100.00;101052.53;4964441;28;20043;-74
2023/09/01 01:42:01;;;;;;;20.17;10.95;;;;;;;12.26;100.00;101048.94;4963685;28;20133;-74
2023/09/01 01:44:41;;;;;;;16.70;10.77;;;;;;;12.27;100.00;101051.53;4947290;28;20051;-73
2023/09/01 01:47:11;;;;;;;14.05;10.18;;;;;;;12.30;100.00;101040.00;4964735;28;20054;-73
2023/09/01 01:49:38;;;;;;;16.88;9.45;;;;;;;12.33;100.00;101045.19;4963105;28;20054;-73
2023/09/01 01:52:06;;;;;;;17.48;9.27;;;;;;;12.34;100.00;101044.28;4954038;28;20590;-73
2023/09/01 01:54:33;;;;;;;15.23;9.30;;;;;;;12.36;100.00;101046.84;4966904;28;20078;-74
2023/09/01 01:57:00;;;;;;;16.92;9.50;;;;;;;12.37;100.00;101054.72;4960210;28;20164;-74
2023/09/01 01:59:28;;;;;;;14.77;9.35;;;;;;;12.37;100.00;101051.22;4965552;28;20428;-73
2023/09/01 02:01:55;;;;;;;12.73;9.52;;;;;;;12.36;100.00;101057.41;4942400;28;20060;-74
2023/09/01 02:04:22;;;;;;;15.88;9.52;;;;;;;12.36;100.00;101050.34;4963868;28;20587;-73
2023/09/01 02:06:49;;;;;;;13.10;8.93;;;;;;;12.39;100.00;101063.47;4964621;28;20451;-73
2023/09/01 02:09:16;;;;;;;16.52;9.18;;;;;;;12.41;100.00;101053.72;4964495;28;20066;-73
2023/09/01 02:11:43;;;;;;;12.13;8.20;;;;;;;12.45;100.00;101050.97;4963926;28;20042;-73
2023/09/01 02:14:10;;;;;;;14.00;8.50;;;;;;;12.46;100.00;101047.41;4950017;28;20042;-72
2023/09/01 02:16:39;;;;;;;13.90;8.95;;;;;;;12.44;100.00;101044.78;4947482;28;20039;-72
2023/09/01 02:19:09;;;;;;;12.90;8.35;;;;;;;12.39;100.00;101055.53;4966101;28;20536;-73
2023/09/01 02:21:39;;;;;;;15.07;8.68;;;;;;;12.34;100.00;101059.25;4965080;28;20638;-74
2023/09/01 02:24:06;;;;;;;14.48;8.40;;;;;;;12.32;100.00;101053.13;4968213;28;20526;-74
2023/09/01 02:26:33;;;;;;;14.18;8.10;;;;;;;12.32;100.00;101045.22;4948356;28;20097;-74
2023/09/01 02:29:00;;;;;;;15.75;8.98;;;;;;;12.32;100.00;101050.50;4966332;28;20408;-73
2023/09/01 02:31:29;;;;;;;15.45;8.85;;;;;;;12.30;100.00;101058.50;4963269;28;20527;-73
2023/09/01 02:33:57;;;;;;;15.25;8.70;;;;;;;12.31;100.00;101048.81;4966694;28;20134;-73
2023/09/01 02:36:33;;;;;;;14.82;8.52;;;;;;;12.31;100.00;101049.66;4964898;28;20047;-73
2023/09/01 02:39:01;;;;;;;17.77;9.02;;;;;;;12.31;100.00;101052.28;4966738;28;20045;-72
2023/09/01 02:41:28;;;;;;;13.85;8.00;;;;;;;12.35;100.00;101051.28;4946772;28;20078;-73
2023/09/01 02:43:57;;;;;;;13.73;8.75;;;;;;;12.40;100.00;101045.84;4964562;28;20046;-73
2023/09/01 02:46:24;;;;;;;15.65;8.30;;;;;;;12.45;100.00;101040.38;4960599;28;20042;-74
2023/09/01 02:48:52;;;;;;;15.68;8.77;;;;;;;12.49;100.00;101042.88;4953036;28;20125;-74
2023/09/01 02:51:19;;;;;;;13.30;8.65;;;;;;;12.55;100.00;101044.44;4961085;28;20066;-74
2023/09/01 02:53:47;;;;;;;16.40;8.70;;;;;;;12.59;100.00;101043.38;4956584;28;20070;-74
2023/09/01 02:56:14;;;;;;;19.38;8.57;;;;;;;12.62;100.00;101045.94;4951885;28;20495;-74
2023/09/01 02:58:41;;;;;;;13.55;8.68;;;;;;;12.65;100.00;101044.94;4965108;28;20046;-74
2023/09/01 03:01:10;;;;;;;14.52;8.93;;;;;;;12.68;100.00;101045.69;4965401;28;20050;-74
2023/09/01 03:03:40;;;;;;;14.27;8.07;;;;;;;12.71;100.00;101036.81;4967860;28;20042;-74
2023/09/01 03:06:09;;;;;;;15.25;8.82;;;;;;;12.73;100.00;101037.59;4950955;28;20078;-74
2023/09/01 03:08:38;;;;;;;14.93;8.60;;;;;;;12.76;100.00;101041.94;4946866;28;20490;-74
2023/09/01 03:11:06;;;;;;;14.50;8.55;;;;;;;12.75;100.00;101035.78;4963765;28;20089;-74
2023/09/01 03:13:33;;;;;;;14.77;8.48;;;;;;;12.78;100.00;101034.78;4966651;28;20043;-74
2023/09/01 03:16:03;;;;;;;14.15;8.65;;;;;;;12.81;100.00;101035.56;4966463;28;20042;-73
2023/09/01 03:18:31;;;;;;;12.35;8.20;;;;;;;12.86;100.00;101035.41;4967258;28;20047;-73
2023/09/01 03:21:10;;;;;;;14.95;8.48;;;;;;;12.91;100.00;101044.00;4949980;28;20050;-72
2023/09/01 03:23:38;;;;;;;16.33;8.45;;;;;;;12.91;100.00;101033.44;4966996;28;20073;-72
2023/09/01 03:26:05;;;;;;;12.68;7.45;;;;;;;12.91;100.00;101041.38;4949030;28;20057;-72
2023/09/01 03:28:33;;;;;;;16.63;8.18;;;;;;;12.92;100.00;101039.59;4950417;28;20136;-73
2023/09/01 03:31:07;;;;;;;16.17;8.60;;;;;;;12.94;100.00;101037.75;4947891;28;20045;-74
2023/09/01 03:33:35;;;;;;;13.18;8.43;;;;;;;12.93;100.00;101025.41;4950079;28;20039;-73
2023/09/01 03:36:03;;;;;;;15.38;8.27;;;;;;;12.96;100.00;101015.63;4963169;28;20043;-74
2023/09/01 03:38:30;;;;;;;17.55;7.78;;;;;;;12.97;100.00;101016.47;4947873;28;20035;-74
2023/09/01 03:41:07;;;;;;;12.35;7.03;;;;;;;12.98;100.00;101024.34;4963098;28;20039;-74
2023/09/01 03:43:35;;;;;;;12.98;7.80;;;;;;;12.98;100.00;101019.03;4947431;28;20049;-74
2023/09/01 03:46:02;;;;;;;13.68;7.65;;;;;;;13.00;100.00;101016.34;4946292;28;20039;-74
2023/09/01 03:48:30;;;;;;;15.43;7.88;;;;;;;13.02;100.00;101015.38;4963667;28;20050;-73
2023/09/01 03:51:11;;;;;;;13.18;7.90;;;;;;;13.03;100.00;101014.44;4949837;28;20211;-72
2023/09/01 03:53:38;;;;;;;11.93;7.18;;;;;;;13.05;100.00;101003.78;4968139;28;20051;-72
2023/09/01 03:56:13;;;;;;;15.02;7.75;;;;;;;13.07;100.00;101017.00;4964028;28;20057;-72
2023/09/01 03:58:40;;;;;;;;;;;;;;;13.06;100.00;101016.13;4959781;28;20058;-72
2023/09/01 04:01:11;;;;;;;12.10;7.15;;;;;;;13.05;100.00;101009.97;4963779;28;19929;-72
2023/09/01 04:03:42;;;;;;;12.07;7.32;;;;;;;13.05;100.00;101007.31;4947940;28;20043;-73
2023/09/01 04:06:11;;;;;;;13.10;7.40;;;;;;;13.07;100.00;100998.47;4962366;28;20043;-73
2023/09/01 04:08:39;;;;;;;15.57;7.68;;;;;;;13.08;100.00;101002.81;4948594;28;20113;-72
2023/09/01 04:11:06;;;;;;;10.95;7.00;;;;;;;13.08;100.00;101000.16;4965139;28;20554;-72
2023/09/01 04:13:35;;;;;;;11.50;7.53;;;;;;;13.08;100.00;101008.09;4966690;28;20042;-73
2023/09/01 04:16:02;;;;;;;15.73;7.63;;;;;;;13.07;100.00;101007.25;4964884;28;20035;-73
2023/09/01 04:18:34;;;;;;;13.55;7.22;;;;;;;13.08;100.00;101016.03;4955335;28;20047;-72
2023/09/01 04:21:02;;;;;;;12.90;7.10;;;;;;;13.10;100.00;101011.56;4965056;28;20078;-72
2023/09/01 04:23:31;;;;;;;12.13;7.32;;;;;;;13.13;100.00;101008.81;4966362;28;20103;-73
2023/09/01 04:26:02;;;;;;;13.70;7.07;;;;;;;13.13;100.00;101001.72;4950126;28;20070;-74
2023/09/01 04:28:29;;;;;;;13.18;7.43;;;;;;;13.13;100.00;100993.78;4949244;28;20043;-73
2023/09/01 04:30:59;;;;;;;11.13;7.22;;;;;;;13.13;100.00;100990.28;4943481;28;20046;-73
2023/09/01 04:33:29;;;;;;;11.38;6.75;;;;;;;13.11;100.00;100987.69;4948684;28;20043;-75
2023/09/01 04:36:05;;;;;;;14.70;7.03;;;;;;;13.11;100.00;100990.34;4967268;28;20047;-74
2023/09/01 04:38:32;;;;;;;14.73;7.30;;;;;;;13.12;100.00;100989.44;4969922;28;20682;-75
2023/09/01 04:41:01;;;;;;;12.43;7.00;;;;;;;13.12;100.00;100985.91;4961746;28;20093;-75
2023/09/01 04:43:32;;;;;;;13.15;6.93;;;;;;;13.12;100.00;100983.25;4960271;28;20035;-74
2023/09/01 04:45:59;;;;;;;9.73;6.50;;;;;;;13.14;100.00;100989.34;4967542;28;20047;-74
2023/09/01 04:48:28;;;;;;;12.27;6.80;;;;;;;13.22;100.00;100999.66;4955429;28;20053;-74
2023/09/01 04:50:56;;;;;;;12.23;6.60;;;;;;;13.28;100.00;101000.25;4968402;28;20050;-74
2023/09/01 04:53:24;;;;;;;12.10;6.90;;;;;;;13.32;100.00;101001.03;4966550;28;20058;-75
2023/09/01 04:55:52;;;;;;;12.50;7.50;;;;;;;13.34;100.00;101004.44;4951603;28;20119;-75
2023/09/01 04:58:19;;;;;;;14.40;7.22;;;;;;;13.36;100.00;101015.84;4950445;28;20332;-75
2023/09/01 05:00:47;;;;;;;12.65;7.53;;;;;;;13.37;100.00;101017.56;4954353;28;20397;-74
2023/09/01 05:03:14;;;;;;;11.20;6.72;;;;;;;13.36;100.00;101014.09;4955534;28;20034;-75
2023/09/01 05:05:42;;;;;;;11.82;6.28;;;;;;;13.40;100.00;101020.16;4953516;28;20074;-75
2023/09/01 05:08:09;;;;;;;14.35;7.53;;;;;;;13.45;100.00;101018.16;4954485;28;20427;-74
2023/09/01 05:10:37;;;;;;;12.73;7.43;;;;;;;13.48;100.00;101022.50;4974301;28;20045;-75
2023/09/01 05:13:04;;;;;;;13.57;7.20;;;;;;;13.51;100.00;101027.66;4971235;28;20250;-75
2023/09/01 05:15:31;;;;;;;14.00;7.05;;;;;;;13.54;100.00;101024.00;4937066;28;20047;-75
2023/09/01 05:17:59;;;;;;;12.57;7.15;;;;;;;13.59;100.00;101022.06;4957487;28;20082;-75
2023/09/01 05:20:26;;;;;;;15.43;7.57;;;;;;;13.63;100.00;101015.72;4956689;28;20038;-75
2023/09/01 05:22:53;;;;;;;12.77;7.05;;;;;;;13.66;100.00;101011.16;4954520;28;20047;-74
2023/09/01 05:25:22;;;;;;;10.48;7.10;;;;;;;13.71;100.00;101007.44;4959590;28;20053;-72
2023/09/01 05:27:50;;;;;;;14.70;7.10;;;;;;;13.74;100.00;101009.97;4971108;28;20051;-73
2023/09/01 05:30:17;;;;;;;13.80;7.35;;;;;;;13.73;100.00;101008.25;4968560;28;20543;-73
2023/09/01 05:32:45;;;;;;;13.00;7.20;;;;;;;13.74;100.00;101004.69;4964121;28;20035;-73
2023/09/01 05:35:12;;;;;;;14.02;6.97;;;;;;;13.73;100.00;101008.25;4955718;28;20085;-72
2023/09/01 05:37:39;;;;;;;11.98;6.78;;;;;;;13.74;100.00;101008.19;4960645;28;20055;-73
2023/09/01 05:40:08;;;;;;;12.75;6.82;;;;;;;13.76;100.00;101018.75;4955821;28;20060;-72
2023/09/01 05:42:35;;;;;;;11.25;7.72;;;;;;;13.78;100.00;101008.94;4956039;28;20476;-73
2023/09/01 05:45:03;;;;;;;13.48;6.85;;;;;;;13.82;100.00;101008.75;4964008;28;20622;-73
2023/09/01 05:47:30;;;;;;;12.57;7.10;;;;;;;13.87;100.00;100997.09;4942450;28;20145;-72
2023/09/01 05:49:58;;;;;;;15.02;7.35;;;;;;;13.91;100.00;100996.03;4951042;28;20098;-73
2023/09/01 05:52:25;;;;;;;14.30;7.00;;;;;;;13.98;100.00;100995.72;4950027;28;20046;-73
2023/09/01 05:54:53;;;;;;;12.40;6.70;;;;;;;14.00;100.00;101000.06;4966081;28;20145;-73
2023/09/01 05:57:20;;;;;;;9.75;7.10;;;;;;;14.03;100.00;101005.25;4968153;28;20043;-73
2023/09/01 05:59:47;;;;;;;13.68;7.10;;;;;;;14.06;100.00;101008.63;4966302;28;20133;-72
2023/09/01 06:02:14;;;;;;;11.65;7.18;;;;;;;14.08;100.00;101014.75;4965164;28;20053;-73
2023/09/01 06:04:41;;;;;;;12.57;7.32;;;;;;;14.14;100.00;101018.91;4964088;28;20154;-73
2023/09/01 06:07:08;;;;;;;12.70;7.10;;;;;;;14.21;100.00;101020.38;4965066;28;20050;-72
2023/09/01 06:09:36;;;;;;;12.38;6.88;;;;;;;14.29;100.00;101020.91;4949506;28;20488;-73
2023/09/01 06:12:04;;;;;;;16.17;7.25;;;;;;;14.34;100.00;101014.53;4966644;28;20047;-73
2023/09/01 06:14:31;;;;;;;11.73;7.07;;;;;;;14.38;100.00;101011.69;4966152;28;20078;-72
2023/09/01 06:16:58;;;;;;;11.55;6.60;;;;;;;14.45;100.00;100999.88;4967028;28;20078;-73
2023/09/01 06:19:25;;;;;;;11.40;6.78;;;;;;;14.50;100.00;101001.47;4962715;28;20061;-72
2023/09/01 06:21:52;;;;;;;10.45;6.45;;;;;;;14.57;100.00;101002.91;4966706;28;20066;-72
2023/09/01 06:24:19;;;;;;;11.38;6.43;;;;;;;14.64;99.41;101004.41;4966183;28;20047;-73
2023/09/01 06:26:46;;;;;;;12.10;6.70;;;;;;;14.69;99.81;101014.84;4963461;28;20443;-73
2023/09/01 06:29:13;;;;;;;11.70;6.60;;;;;;;14.77;100.00;101017.13;4967841;28;20050;-73
2023/09/01 06:31:40;;;;;;;10.75;6.63;;;;;;;14.83;99.63;101020.34;4968087;28;20042;-74
2023/09/01 06:34:07;;;;;;;11.30;5.85;;;;;;;14.91;99.55;101022.69;4966385;28;20058;-74
2023/09/01 06:36:34;;;;;;;9.38;5.95;;;;;;;15.02;99.62;101024.81;4967217;28;20503;-73
2023/09/01 06:39:02;;;;;;;9.07;5.50;;;;;;;15.12;99.15;101022.63;4967360;28;20046;-74
2023/09/01 06:41:29;;;;;;;8.77;5.82;;;;;;;15.19;98.88;101021.38;4967517;28;20435;-73
2023/09/01 06:43:56;;;;;;;9.98;5.75;;;;;;;15.22;98.95;101019.44;4967259;28;20068;-74
2023/09/01 06:46:23;;;;;;;8.13;5.90;;;;;;;15.29;98.60;101024.50;4966002;28;20101;-73
2023/09/01 06:48:50;;;;;;;8.93;5.63;;;;;;;15.35;98.25;101030.38;4966360;28;20481;-73
2023/09/01 06:51:17;;;;;;;10.27;5.43;;;;;;;15.41;98.52;101037.19;4966338;28;20046;-73
2023/09/01 06:53:45;;;;;;;12.50;5.65;;;;;;;15.42;98.31;101033.56;4966964;28;20039;-73
2023/09/01 06:56:12;;;;;;;10.65;5.55;;;;;;;15.42;97.89;101024.75;4966170;28;20067;-73
2023/09/01 06:58:39;;;;;;;8.02;5.40;;;;;;;15.43;97.40;101018.50;4964118;28;20524;-74
2023/09/01 07:01:11;;;;;;;10.98;5.78;;;;;;;15.48;97.40;101020.03;4962491;28;20043;-74
2023/09/01 07:03:38;;;;;;;9.85;5.68;;;;;;;15.57;97.77;101017.84;4965946;28;20554;-73
2023/09/01 07:06:06;;;;;;;8.07;5.07;;;;;;;15.68;97.72;101023.50;4967943;28;20531;-73
2023/09/01 07:08:33;;;;;;;10.98;5.20;;;;;;;15.80;98.05;101022.91;4966109;28;20117;-74
2023/09/01 07:11:05;;;;;;;11.85;5.10;;;;;;;15.91;97.55;101022.41;4967205;28;20516;-73
2023/09/01 07:13:32;;;;;;;9.20;5.20;;;;;;;16.00;97.32;101026.41;4966628;28;20049;-74
2023/09/01 07:15:59;;;;;;;8.27;4.88;;;;;;;16.05;96.21;101032.34;4966899;28;20051;-74
2023/09/01 07:18:27;;;;;;;10.32;4.78;;;;;;;16.07;95.79;101029.63;4966222;28;20446;-74
2023/09/01 07:20:59;;;;;;;9.43;4.95;;;;;;;16.08;95.99;101028.66;4964466;28;20125;-75
2023/09/01 07:23:27;;;;;;;9.40;4.40;;;;;;;16.12;96.42;101027.56;4971767;28;20039;-75
2023/09/01 07:25:55;;;;;;;7.95;4.68;;;;;;;16.18;96.34;101021.94;4967783;28;20038;-75
2023/09/01 07:28:23;;;;;;;11.40;5.05;;;;;;;16.21;95.95;101016.47;4973143;28;20046;-76
2023/09/01 07:30:50;;;;;;;8.15;4.35;;;;;;;16.23;95.28;101006.59;4965536;28;20211;-76
2023/09/01 07:33:17;;;;;;;8.68;4.88;;;;;;;16.23;95.34;101011.94;4964361;28;20054;-76
2023/09/01 07:35:49;;;;;;;12.40;5.05;;;;;;;16.24;95.51;101002.13;4965446;28;20504;-76
2023/09/01 07:38:17;;;;;;;8.65;4.90;;;;;;;16.24;95.76;101008.34;4965820;28;20047;-75
2023/09/01 07:40:44;;;;;;;7.43;5.32;;;;;;;16.28;95.71;101009.88;4960928;28;20043;-76
2023/09/01 07:43:12;;;;;;;8.57;5.10;;;;;;;16.27;95.63;101010.84;4963934;28;20441;-76
2023/09/01 07:45:39;;;;;;;10.75;5.40;;;;;;;16.26;95.68;101005.59;4965284;28;20047;-75
2023/09/01 07:48:08;;;;;;;7.60;4.70;;;;;;;16.27;95.86;101008.19;4965060;28;20098;-75
2023/09/01 07:50:49;;;;;;;7.60;4.95;;;;;;;16.25;95.67;101006.53;4965304;28;20503;-75
2023/09/01 07:53:17;;;;;;;9.68;5.18;;;;;;;16.25;96.20;101011.84;4965674;28;20291;-75
2023/09/01 07:55:44;;;;;;;7.80;4.90;;;;;;;16.25;96.72;101011.84;4964478;28;20054;-75
2023/09/01 07:58:12;;;;;;;10.40;5.03;;;;;;;16.29;96.84;101016.06;4966842;28;20074;-75
2023/09/01 08:00:40;;;;;;;8.57;4.65;;;;;;;16.29;96.99;101010.75;4948252;28;20530;-77
2023/09/01 08:03:10;;;;;;;9.73;4.85;;;;;;;16.31;96.91;101008.88;4966735;28;20074;-75
2023/09/01 08:05:39;;;;;;;10.38;4.88;;;;;;;16.33;97.18;101004.31;4960271;28;20796;-76
2023/09/01 08:08:06;;;;;;;7.43;4.60;;;;;;;16.35;97.52;100999.78;4959915;28;20055;-75
2023/09/01 08:10:34;;;;;;;6.35;4.60;;;;;;;16.39;97.48;101003.13;4945704;28;20047;-76
2023/09/01 08:13:02;;;;;;;6.28;4.93;;;;;;;16.39;97.65;101003.13;4947448;28;20043;-75
2023/09/01 08:15:29;;;;;;;12.30;4.85;;;;;;;16.43;97.86;101008.22;4964052;28;20042;-75
2023/09/01 08:17:56;;;;;;;6.80;4.70;;;;;;;16.44;98.59;101011.75;4963237;28;20184;-76
2023/09/01 08:20:23;;;;;;;9.52;4.82;;;;;;;16.45;98.28;101018.81;4963216;28;20421;-75
2023/09/01 08:22:50;;;;;;;6.88;4.57;;;;;;;16.46;98.85;101018.72;4963585;28;20042;-75
2023/09/01 08:25:18;;;;;;;10.90;5.22;;;;;;;16.48;98.72;101021.31;4962794;28;20041;-75
2023/09/01 08:27:45;;;;;;;9.55;4.53;;;;;;;16.50;98.58;101022.06;4964610;28;20039;-75
2023/09/01 08:30:13;;;;;;;7.18;4.82;;;;;;;16.54;98.90;101026.31;4954883;28;20070;-75
2023/09/01 08:32:41;;;;;;;8.35;5.07;;;;;;;16.58;98.95;101027.00;4965291;28;20097;-75
2023/09/01 08:35:09;;;;;;;8.75;5.47;;;;;;;16.65;98.63;101039.03;4965869;28;20618;-76
2023/09/01 08:37:38;;;;;;;9.88;4.95;;;;;;;16.66;98.49;101039.91;4965500;28;20050;-75
2023/09/01 08:40:09;;;;;;;9.15;5.10;;;;;;;16.64;98.57;101042.63;4964679;28;20488;-76
2023/09/01 08:42:48;;;;;;;8.32;5.00;;;;;;;16.63;98.82;101043.59;4965217;28;20053;-76
2023/09/01 08:45:19;;;;;;;8.88;5.18;;;;;;;16.67;99.02;101049.63;4964938;28;20126;-75
2023/09/01 08:47:48;;;;;;;8.20;4.90;;;;;;;16.71;98.77;101053.81;4964860;28;20046;-75
2023/09/01 08:50:18;;;;;;;8.10;4.97;;;;;;;16.68;98.37;101054.00;4962701;28;20047;-75
2023/09/01 08:52:48;;;;;;;6.85;4.70;;;;;;;16.68;98.83;101054.00;4964474;28;20054;-75
2023/09/01 08:55:17;;;;;;;8.88;4.95;;;;;;;16.65;98.72;101052.34;4962445;28;20043;-75
2023/09/01 08:57:48;;;;;;;6.97;5.05;;;;;;;16.63;98.60;101054.25;4965188;28;20041;-76
2023/09/01 09:00:16;;;;;;;9.45;4.72;;;;;;;16.58;98.51;101045.63;4964890;28;20069;-75
2023/09/01 09:02:44;;;;;;;8.35;4.88;;;;;;;16.56;98.52;101048.38;4965029;28;20047;-75
2023/09/01 09:05:33;;;;;;;7.50;5.22;;;;;;;16.53;98.92;101047.69;4957371;28;20480;-76
2023/09/01 09:08:04;;;;;;;6.72;5.43;;;;;;;16.52;99.46;101048.63;4965128;28;20054;-75
2023/09/01 09:10:48;;;;;;;8.23;5.80;;;;;;;16.54;99.77;101055.56;4960871;28;20051;-75
2023/09/01 09:13:29;;;;;;;7.22;5.50;;;;;;;16.56;100.00;101063.47;4964396;28;20145;-75
2023/09/01 09:16:14;;;;;;;7.03;5.32;;;;;;;16.56;100.00;101059.03;4961321;28;20054;-75
2023/09/01 09:18:45;;;;;;;7.35;5.45;;;;;;;16.55;100.00;101059.97;4958898;28;20847;-74
2023/09/01 09:21:32;;;;;;;10.55;6.30;;;;;;;16.58;100.00;101070.41;4966567;28;20145;-75
2023/09/01 09:24:05;;;;;;;7.65;6.03;;;;;;;16.58;100.00;101066.91;4969316;28;20047;-75
2023/09/01 09:26:35;;;;;;;9.07;6.03;;;;;;;16.55;100.00;101062.63;4968274;28;20503;-76
2023/09/01 09:29:11;;;;;;;9.60;6.55;;;;;;;16.49;100.00;101065.56;4966755;28;20042;-75
2023/09/01 09:31:43;;;;;;;10.30;6.72;;;;;;;16.48;100.00;101068.31;4966637;28;20116;-75
2023/09/01 09:34:27;;;;;;;9.00;6.40;;;;;;;16.47;100.00;101078.13;4967389;28;20066;-74
2023/09/01 09:36:54;;;;;;;9.27;6.30;;;;;;;16.48;100.00;101068.31;4962714;28;20043;-74
2023/09/01 09:39:26;;;;;;;9.75;6.30;;;;;;;16.49;100.00;101072.72;4967709;28;20046;-76
2023/09/01 09:41:56;;;;;;;10.30;6.65;;;;;;;16.47;100.00;101072.81;4967466;28;20387;-74
2023/09/01 09:44:35;;;;;;;11.15;6.85;;;;;;;16.49;100.00;101075.38;4967530;28;20646;-75
2023/09/01 09:47:10;;;;;;;9.57;6.40;;;;;;;16.49;100.00;101076.22;4967739;28;20050;-75
2023/09/01 09:49:39;;;;;;;10.68;7.72;;;;;;;16.49;100.00;101073.56;4965476;28;20061;-74
2023/09/01 09:52:08;;;;;;;8.55;6.32;;;;;;;16.52;100.00;101075.22;4967740;28;20499;-75
2023/09/01 09:54:44;;;;;;;9.85;7.93;;;;;;;16.54;100.00;101078.66;4967485;28;20047;-74
2023/09/01 09:57:15;;;;;;;7.60;6.90;;;;;;;16.57;100.00;101082.03;4968646;28;20476;-75
2023/09/01 09:59:53;;;;;;;9.02;6.43;;;;;;;16.53;100.00;101077.78;4959725;28;20039;-75
2023/09/01 10:02:47;;;;;;;9.13;7.55;;;;;;;16.56;100.00;101074.09;4967386;28;20325;-74
2023/09/01 10:05:15;;;;;;;9.85;8.02;;;;;;;16.55;100.00;101075.91;4967705;28;20051;-75
2023/09/01 10:07:43;;;;;;;10.30;7.40;;;;;;;16.58;100.00;101069.56;4965336;28;20137;-75
2023/09/01 10:10:12;;;;;;;10.95;8.35;;;;;;;16.60;100.00;101076.53;4966927;28;20070;-75
2023/09/01 10:12:40;;;;;;;8.63;7.72;;;;;;;16.64;100.00;101076.38;4967763;28;20579;-75
2023/09/01 10:15:12;;;;;;;12.52;8.57;;;;;;;16.69;100.00;101075.19;4967715;28;20133;-74
2023/09/01 10:17:42;;;;;;;9.80;7.38;;;;;;;16.76;100.00;101073.94;4949431;28;20118;-76
2023/09/01 10:20:09;;;;;;;8.30;7.28;;;;;;;16.79;100.00;101072.91;4967458;28;20097;-75
2023/09/01 10:22:41;;;;;;;9.32;8.15;;;;;;;16.84;100.00;101072.69;4966934;28;20411;-74
2023/09/01 10:25:17;;;;;;;13.93;9.20;;;;;;;16.91;100.00;101069.59;4966543;28;20046;-74
2023/09/01 10:28:08;;;;;;;9.85;7.55;;;;;;;16.94;100.00;101073.91;4966897;28;20129;-74
2023/09/01 10:30:45;;;;;;;9.77;8.57;;;;;;;16.99;100.00;101071.03;4955574;28;20094;-75
2023/09/01 10:33:24;;;;;;;10.82;9.07;;;;;;;16.98;100.00;101064.00;4960727;28;20039;-74
2023/09/01 10:35:57;;;;;;;7.05;5.57;;;;;;;16.99;100.00;101068.38;4966151;28;20046;-75
2023/09/01 10:38:45;;;;;;;9.25;7.20;;;;;;;16.98;100.00;101072.81;4966914;28;20489;-75
2023/09/01 10:41:12;;;;;;;9.68;8.50;;;;;;;16.94;100.00;101065.09;4967178;28;20443;-75
2023/09/01 10:43:44;;;;;;;9.40;8.50;;;;;;;16.93;100.00;101069.53;4965854;28;20130;-75
2023/09/01 10:46:11;;;;;;;9.48;8.48;;;;;;;16.92;100.00;101066.00;4966996;28;20457;-75
2023/09/01 10:48:59;;;;;;;9.32;8.43;;;;;;;16.92;100.00;101065.16;4964528;28;20535;-75
2023/09/01 10:51:29;;;;;;;9.50;8.50;;;;;;;16.95;100.00;101061.47;4965914;28;20455;-75
2023/09/01 10:54:01;;;;;;;9.27;8.13;;;;;;;16.97;100.00;101056.94;4966697;28;20101;-76
2023/09/01 10:56:31;;;;;;;9.48;8.38;;;;;;;16.94;100.00;101062.41;4967178;28;20071;-75
2023/09/01 10:58:58;;;;;;;9.35;8.40;;;;;;;16.91;100.00;101060.75;4965882;28;20055;-75
2023/09/01 11:01:37;;;;;;;6.85;6.22;;;;;;;16.92;100.00;101057.16;4967466;28;20372;-75
2023/09/01 11:04:16;;;;;;;9.70;8.77;;;;;;;16.97;100.00;101055.13;4958260;28;20047;-76
2023/09/01 11:07:00;;;;;;;9.70;8.68;;;;;;;17.01;100.00;101059.34;4962207;28;20539;-75
2023/09/01 11:09:33;;;;;;;8.80;7.90;;;;;;;17.04;100.00;101063.66;4966181;28;20073;-74
2023/09/01 11:12:03;;;;;;;9.50;7.33;;;;;;;17.06;100.00;101064.44;4966346;28;20760;-75
2023/09/01 11:14:31;;;;;;;9.38;8.45;;;;;;;17.06;100.00;101067.94;4966323;28;20043;-74
2023/09/01 11:17:00;;;;;;;9.77;8.77;;;;;;;17.08;100.00;101066.06;4965780;28;20484;-74
2023/09/01 11:19:28;;;;;;;9.77;8.77;;;;;;;17.05;100.00;101066.22;4966626;28;20121;-75
2023/09/01 11:21:55;;;;;;;11.18;9.23;;;;;;;17.08;100.00;101067.88;4965597;28;20047;-75
2023/09/01 11:24:22;;;;;;;10.65;9.55;;;;;;;17.15;100.00;101068.38;4965458;28;20035;-75
2023/09/01 11:26:54;;;;;;;11.10;10.00;;;;;;;17.24;100.00;101070.56;4966300;28;20391;-75
2023/09/01 11:29:21;;;;;;;11.43;10.23;;;;;;;17.33;100.00;101064.72;4966100;28;20035;-75